Belleville, MI (48111)

7:13 AM EDT on September 21, 2014 (GMT -0400)
Bentley Dr. | Change Station
CLOSE
Current Station
Personal Weather Station
Location: Belleville, MI
Elevation: 679 ft
Nearby Weather Stations

Elev 679 ft 42.20 °N, 83.51 °W | Updated 2 seconds ago

Overcast
Overcast
65.9 °F
Feels Like 65.9 °F
N
4.4
Wind Variable Wind from WSW
Gusts 7.0 mph

Today
High -- | Low -- °F
--% Chance of Precip.
Yesterday
High -- | Low -- °F
Precip. -- in
7:20 AM 7:32 PM
Waning Crescent, 7% visible
Pressure 29.60 in
Visibility 10.0 miles
Clouds Scattered Clouds 2000 ft
Mostly Cloudy 2700 ft
Overcast 4200 ft
Dew Point 64 °F
Humidity 95%
Rainfall 0.11 in
Snow Depth Not available.
UV 0.0 out of 12
Pollen 2.70 out of 12
Ozone Good
PM2.5 Good
Flu Activity Not available.
METAR KYIP 211053Z AUTO 26010KT 10SM SCT020 BKN027 OVC042 22/18 A2962 RMK AO2 SLP023 T02220178 TSNO

More Conditions Fewer Conditions

Pressure 29.60 in
Visibility 10.0 miles
Clouds Scattered Clouds 2000 ft
Mostly Cloudy 2700 ft
Overcast 4200 ft
Dew Point 64 °F
Humidity 95%
Rainfall 0.11 in
Snow Depth Not available.
UV 0.0 out of 12
Pollen 2.70 out of 12
Ozone Good
PM2.5 Good
Flu Activity Not available.
METAR KYIP 211053Z AUTO 26010KT 10SM SCT020 BKN027 OVC042 22/18 A2962 RMK AO2 SLP023 T02220178 TSNO

More Conditions Fewer Conditions

10-Day Weather Forecast

Almanac

Astronomy

Sep. 21, 2014 Rise Set
Actual Time 7:20 AM EDT 7:32 PM EDT
Civil Twilight 6:52 AM EDT 8:00 PM EDT
Nautical Twilight 6:19 AM EDT 8:33 PM EDT
Astronomical Twilight 5:45 AM EDT 9:07 PM EDT
Moon 4:50 AM EDT 6:10 PM EDT
Length of Visible Light 13h 08m
Length of Day
12h 12m
Tomorrow will be 2m 48s shorter.
Waning Crescent, 7% of the Moon is Illuminated
Today
Waning Crescent
Sep 24
New
Oct 1
First Quarter
Oct 8
Full
Oct 15
Last Quarter

Today's Extremes

State Highs State Lows

Community

WunderPhotos

Upload Photos

1,755,113 photos uploaded!

Nearby

Air Quality

  Air Quality AQ Index Pollutant
Yesterday Good
PM10
Yesterday Good
OZONE
Current Good
PM2.5
Current Good
OZONE
Sunday Good
OZONE
Sunday Good
PM2.5
Monday Good
OZONE
Monday Good
PM2.5

Snow Depth

Station Depth Elevation
No new snow has been reported.

Earthquake Activity

City Distance Mag. Time & Date
No recent earthquake activity has been reported nearby.
Minimum magnitude displayed is 2.5.

Coastal Water Temperatures

Place Temperature
Marblehead, OH 66.0 °F

Nearby Weather Stations